Halsey, Nebraska
Current Conditions -  °F | °C
As of 9:35 AM on Friday 24 Oct 2014 (Local Time) from KTIF Reporting Station
Clear Clear  
Wind Chill: 53°   Ceiling: Unl
Heat Index: 53°   Visibility: 10mi
Dew Point: 40°   Wind: 6mph
Humidity: 59%   Direction: 300°WNW
Pressure: 29.98"   Gusts: NA
Location:  41.9°N, 100.27°W
Report Text: KTIF 241435Z AUTO 30005KT 10SM CLR 12/04 A2998 RMK AO2 T01190042
Loading
Personal Weather Stations






























Interactive Weather Map
Tropical Storm Tracking
New forecast layout! Learn more

10-Day Weather Forecast

Advertisements
Track Severe Weather on mobile